sensor_id;sensor_type;location;lat;lon;timestamp;temperature;humidity
24686;DHT22;12804;51.176;4.452;2022-09-02T00:00:49;18.70;99.90
24686;DHT22;12804;51.176;4.452;2022-09-02T00:03:15;18.60;99.90
24686;DHT22;12804;51.176;4.452;2022-09-02T00:05:41;18.60;99.90
24686;DHT22;12804;51.176;4.452;2022-09-02T00:08:08;18.50;99.90
24686;DHT22;12804;51.176;4.452;2022-09-02T00:10:37;18.40;99.90
24686;DHT22;12804;51.176;4.452;2022-09-02T00:13:04;18.40;99.90
24686;DHT22;12804;51.176;4.452;2022-09-02T00:15:30;18.30;99.90
24686;DHT22;12804;51.176;4.452;2022-09-02T00:17:59;18.40;99.90
24686;DHT22;12804;51.176;4.452;2022-09-02T00:20:26;18.40;99.90
24686;DHT22;12804;51.176;4.452;2022-09-02T00:22:52;18.40;99.90
24686;DHT22;12804;51.176;4.452;2022-09-02T00:25:18;18.60;99.90
24686;DHT22;12804;51.176;4.452;2022-09-02T00:27:45;18.70;99.90
24686;DHT22;12804;51.176;4.452;2022-09-02T00:30:11;18.60;99.90
24686;DHT22;12804;51.176;4.452;2022-09-02T00:32:37;18.50;99.90
24686;DHT22;12804;51.176;4.452;2022-09-02T00:35:04;18.50;99.90
24686;DHT22;12804;51.176;4.452;2022-09-02T00:37:30;18.40;99.90
24686;DHT22;12804;51.176;4.452;2022-09-02T00:39:56;18.40;99.90
24686;DHT22;12804;51.176;4.452;2022-09-02T00:42:24;18.40;99.90
24686;DHT22;12804;51.176;4.452;2022-09-02T00:44:50;18.30;99.90
24686;DHT22;12804;51.176;4.452;2022-09-02T00:47:17;18.30;99.90
24686;DHT22;12804;51.176;4.452;2022-09-02T00:49:45;18.30;99.90
24686;DHT22;12804;51.176;4.452;2022-09-02T00:52:16;18.20;99.90
24686;DHT22;12804;51.176;4.452;2022-09-02T00:54:50;18.20;99.90
24686;DHT22;12804;51.176;4.452;2022-09-02T00:57:19;18.20;99.90
24686;DHT22;12804;51.176;4.452;2022-09-02T01:00:09;18.30;99.90
24686;DHT22;12804;51.176;4.452;2022-09-02T01:02:37;18.30;99.90
24686;DHT22;12804;51.176;4.452;2022-09-02T01:05:05;18.20;99.90
24686;DHT22;12804;51.176;4.452;2022-09-02T01:07:35;18.10;99.90
24686;DHT22;12804;51.176;4.452;2022-09-02T01:10:09;18.00;99.90
24686;DHT22;12804;51.176;4.452;2022-09-02T01:12:35;17.90;99.90
24686;DHT22;12804;51.176;4.452;2022-09-02T01:15:03;17.90;99.90
24686;DHT22;12804;51.176;4.452;2022-09-02T01:17:29;17.90;99.90
24686;DHT22;12804;51.176;4.452;2022-09-02T01:20:06;17.80;99.90
24686;DHT22;12804;51.176;4.452;2022-09-02T01:22:37;17.80;99.90
24686;DHT22;12804;51.176;4.452;2022-09-02T01:25:10;17.80;99.90
24686;DHT22;12804;51.176;4.452;2022-09-02T01:27:36;17.80;99.90
24686;DHT22;12804;51.176;4.452;2022-09-02T01:30:05;17.70;99.90
24686;DHT22;12804;51.176;4.452;2022-09-02T01:32:31;17.60;99.90
24686;DHT22;12804;51.176;4.452;2022-09-02T01:34:57;17.60;99.90
24686;DHT22;12804;51.176;4.452;2022-09-02T01:37:24;17.60;99.90
24686;DHT22;12804;51.176;4.452;2022-09-02T01:39:51;17.50;99.90
24686;DHT22;12804;51.176;4.452;2022-09-02T01:42:18;17.50;99.90
24686;DHT22;12804;51.176;4.452;2022-09-02T01:44:44;17.40;99.90
24686;DHT22;12804;51.176;4.452;2022-09-02T01:47:21;17.40;99.90
24686;DHT22;12804;51.176;4.452;2022-09-02T01:49:48;17.50;99.90
24686;DHT22;12804;51.176;4.452;2022-09-02T01:52:15;17.50;99.90
24686;DHT22;12804;51.176;4.452;2022-09-02T01:54:42;17.40;99.90
24686;DHT22;12804;51.176;4.452;2022-09-02T01:57:09;17.30;99.90
24686;DHT22;12804;51.176;4.452;2022-09-02T01:59:36;17.20;99.90
24686;DHT22;12804;51.176;4.452;2022-09-02T02:02:03;17.30;99.90
24686;DHT22;12804;51.176;4.452;2022-09-02T02:04:31;17.30;99.90
24686;DHT22;12804;51.176;4.452;2022-09-02T02:06:58;17.30;99.90
24686;DHT22;12804;51.176;4.452;2022-09-02T02:09:24;17.20;99.90
24686;DHT22;12804;51.176;4.452;2022-09-02T02:11:51;17.10;99.90
24686;DHT22;12804;51.176;4.452;2022-09-02T02:14:18;17.10;99.90
24686;DHT22;12804;51.176;4.452;2022-09-02T02:16:47;17.10;99.90
24686;DHT22;12804;51.176;4.452;2022-09-02T02:19:13;17.10;99.90
24686;DHT22;12804;51.176;4.452;2022-09-02T02:21:39;17.10;99.90
24686;DHT22;12804;51.176;4.452;2022-09-02T02:24:06;17.10;99.90
24686;DHT22;12804;51.176;4.452;2022-09-02T02:26:34;17.10;99.90
24686;DHT22;12804;51.176;4.452;2022-09-02T02:29:02;17.10;99.90
24686;DHT22;12804;51.176;4.452;2022-09-02T02:31:28;17.10;99.90
24686;DHT22;12804;51.176;4.452;2022-09-02T02:33:54;17.20;99.90
24686;DHT22;12804;51.176;4.452;2022-09-02T02:36:21;17.10;99.90
24686;DHT22;12804;51.176;4.452;2022-09-02T02:38:47;17.10;99.90
24686;DHT22;12804;51.176;4.452;2022-09-02T02:41:14;17.00;99.90
24686;DHT22;12804;51.176;4.452;2022-09-02T02:43:41;16.90;99.90
24686;DHT22;12804;51.176;4.452;2022-09-02T02:46:08;17.00;99.90
24686;DHT22;12804;51.176;4.452;2022-09-02T02:48:36;17.00;99.90
24686;DHT22;12804;51.176;4.452;2022-09-02T02:51:04;17.00;99.90
24686;DHT22;12804;51.176;4.452;2022-09-02T02:53:32;17.00;99.90
24686;DHT22;12804;51.176;4.452;2022-09-02T02:55:59;17.10;99.90
24686;DHT22;12804;51.176;4.452;2022-09-02T02:58:25;17.10;99.90
24686;DHT22;12804;51.176;4.452;2022-09-02T03:00:51;16.90;99.90
24686;DHT22;12804;51.176;4.452;2022-09-02T03:03:19;16.80;99.90
24686;DHT22;12804;51.176;4.452;2022-09-02T03:05:51;16.80;99.90
24686;DHT22;12804;51.176;4.452;2022-09-02T03:08:19;16.80;99.90
24686;DHT22;12804;51.176;4.452;2022-09-02T03:10:47;16.70;99.90
24686;DHT22;12804;51.176;4.452;2022-09-02T03:13:15;16.60;99.90
24686;DHT22;12804;51.176;4.452;2022-09-02T03:15:42;16.60;99.90
24686;DHT22;12804;51.176;4.452;2022-09-02T03:18:09;16.60;99.90
24686;DHT22;12804;51.176;4.452;2022-09-02T03:20:35;16.60;99.90
24686;DHT22;12804;51.176;4.452;2022-09-02T03:23:04;16.50;99.90
24686;DHT22;12804;51.176;4.452;2022-09-02T03:25:32;16.40;99.90
24686;DHT22;12804;51.176;4.452;2022-09-02T03:28:02;16.50;99.90
24686;DHT22;12804;51.176;4.452;2022-09-02T03:30:30;16.60;99.90
24686;DHT22;12804;51.176;4.452;2022-09-02T03:32:59;16.60;99.90
24686;DHT22;12804;51.176;4.452;2022-09-02T03:35:27;16.60;99.90
24686;DHT22;12804;51.176;4.452;2022-09-02T03:37:54;16.50;99.90
24686;DHT22;12804;51.176;4.452;2022-09-02T03:40:24;16.50;99.90
24686;DHT22;12804;51.176;4.452;2022-09-02T03:42:52;16.50;99.90
24686;DHT22;12804;51.176;4.452;2022-09-02T03:45:19;16.60;99.90
24686;DHT22;12804;51.176;4.452;2022-09-02T03:47:47;16.50;99.90
24686;DHT22;12804;51.176;4.452;2022-09-02T03:50:26;16.50;99.90
24686;DHT22;12804;51.176;4.452;2022-09-02T03:52:52;16.50;99.90
24686;DHT22;12804;51.176;4.452;2022-09-02T03:55:20;16.50;99.90
24686;DHT22;12804;51.176;4.452;2022-09-02T03:57:46;16.50;99.90
24686;DHT22;12804;51.176;4.452;2022-09-02T04:00:15;16.50;99.90
24686;DHT22;12804;51.176;4.452;2022-09-02T04:02:43;16.50;99.90
24686;DHT22;12804;51.176;4.452;2022-09-02T04:05:11;16.50;99.90
24686;DHT22;12804;51.176;4.452;2022-09-02T04:07:39;16.50;99.90
24686;DHT22;12804;51.176;4.452;2022-09-02T04:10:06;16.50;99.90
24686;DHT22;12804;51.176;4.452;2022-09-02T04:12:36;16.60;99.90
24686;DHT22;12804;51.176;4.452;2022-09-02T04:15:07;16.50;99.90
24686;DHT22;12804;51.176;4.452;2022-09-02T04:17:39;16.50;99.90
24686;DHT22;12804;51.176;4.452;2022-09-02T04:20:09;16.60;99.90
24686;DHT22;12804;51.176;4.452;2022-09-02T04:22:35;16.60;99.90
24686;DHT22;12804;51.176;4.452;2022-09-02T04:25:03;16.70;99.90
24686;DHT22;12804;51.176;4.452;2022-09-02T04:27:30;16.70;99.90
24686;DHT22;12804;51.176;4.452;2022-09-02T04:29:56;16.70;99.90
24686;DHT22;12804;51.176;4.452;2022-09-02T04:32:22;16.70;99.90
24686;DHT22;12804;51.176;4.452;2022-09-02T04:34:50;16.80;99.90
24686;DHT22;12804;51.176;4.452;2022-09-02T04:37:17;16.80;99.90
24686;DHT22;12804;51.176;4.452;2022-09-02T04:39:43;16.80;99.90
24686;DHT22;12804;51.176;4.452;2022-09-02T04:42:09;16.80;99.90
24686;DHT22;12804;51.176;4.452;2022-09-02T04:44:35;16.70;99.90
24686;DHT22;12804;51.176;4.452;2022-09-02T04:47:01;16.70;99.90
24686;DHT22;12804;51.176;4.452;2022-09-02T04:49:27;16.70;99.90
24686;DHT22;12804;51.176;4.452;2022-09-02T04:51:57;16.80;99.90
24686;DHT22;12804;51.176;4.452;2022-09-02T04:54:24;16.90;99.90
24686;DHT22;12804;51.176;4.452;2022-09-02T04:56:51;17.00;99.90
24686;DHT22;12804;51.176;4.452;2022-09-02T04:59:18;17.00;99.90
24686;DHT22;12804;51.176;4.452;2022-09-02T05:01:56;17.10;99.90
24686;DHT22;12804;51.176;4.452;2022-09-02T05:04:25;17.10;99.90
24686;DHT22;12804;51.176;4.452;2022-09-02T05:06:52;17.00;99.90
24686;DHT22;12804;51.176;4.452;2022-09-02T05:09:20;17.00;99.90
24686;DHT22;12804;51.176;4.452;2022-09-02T05:11:59;17.00;99.90
24686;DHT22;12804;51.176;4.452;2022-09-02T05:14:37;17.00;99.90
24686;DHT22;12804;51.176;4.452;2022-09-02T05:17:06;17.00;99.90
24686;DHT22;12804;51.176;4.452;2022-09-02T05:19:32;17.00;99.90
24686;DHT22;12804;51.176;4.452;2022-09-02T05:21:59;17.10;99.90
24686;DHT22;12804;51.176;4.452;2022-09-02T05:24:38;17.10;99.90
24686;DHT22;12804;51.176;4.452;2022-09-02T05:27:08;17.10;99.90
24686;DHT22;12804;51.176;4.452;2022-09-02T05:29:35;17.00;99.90
24686;DHT22;12804;51.176;4.452;2022-09-02T05:32:01;17.10;99.90
24686;DHT22;12804;51.176;4.452;2022-09-02T05:34:29;17.30;99.90
24686;DHT22;12804;51.176;4.452;2022-09-02T05:36:58;17.30;99.90
24686;DHT22;12804;51.176;4.452;2022-09-02T05:39:26;17.50;99.90
24686;DHT22;12804;51.176;4.452;2022-09-02T05:41:53;17.50;99.90
24686;DHT22;12804;51.176;4.452;2022-09-02T05:44:19;17.50;99.90
24686;DHT22;12804;51.176;4.452;2022-09-02T05:46:45;17.40;99.90
24686;DHT22;12804;51.176;4.452;2022-09-02T05:49:11;17.40;99.90
24686;DHT22;12804;51.176;4.452;2022-09-02T05:51:56;17.50;99.90
24686;DHT22;12804;51.176;4.452;2022-09-02T05:54:30;17.50;99.90
24686;DHT22;12804;51.176;4.452;2022-09-02T05:57:07;17.50;99.90
24686;DHT22;12804;51.176;4.452;2022-09-02T05:59:39;17.50;99.90
24686;DHT22;12804;51.176;4.452;2022-09-02T06:02:10;17.60;99.90
24686;DHT22;12804;51.176;4.452;2022-09-02T06:04:46;17.70;99.90
24686;DHT22;12804;51.176;4.452;2022-09-02T06:07:15;17.60;99.90
24686;DHT22;12804;51.176;4.452;2022-09-02T06:09:44;17.70;99.90
24686;DHT22;12804;51.176;4.452;2022-09-02T06:12:11;17.70;99.90
24686;DHT22;12804;51.176;4.452;2022-09-02T06:14:38;17.80;99.90
24686;DHT22;12804;51.176;4.452;2022-09-02T06:17:05;17.70;99.90
24686;DHT22;12804;51.176;4.452;2022-09-02T06:19:38;17.80;99.90
24686;DHT22;12804;51.176;4.452;2022-09-02T06:22:06;17.80;99.90
24686;DHT22;12804;51.176;4.452;2022-09-02T06:24:35;17.90;99.90
24686;DHT22;12804;51.176;4.452;2022-09-02T06:27:06;18.00;99.90
24686;DHT22;12804;51.176;4.452;2022-09-02T06:29:33;18.60;99.90
24686;DHT22;12804;51.176;4.452;2022-09-02T06:31:59;18.40;99.90
24686;DHT22;12804;51.176;4.452;2022-09-02T06:34:25;18.40;99.90
24686;DHT22;12804;51.176;4.452;2022-09-02T06:36:53;18.30;99.90
24686;DHT22;12804;51.176;4.452;2022-09-02T06:39:21;18.40;99.90
24686;DHT22;12804;51.176;4.452;2022-09-02T06:41:49;18.40;99.90
24686;DHT22;12804;51.176;4.452;2022-09-02T06:44:18;18.30;99.90
24686;DHT22;12804;51.176;4.452;2022-09-02T06:46:52;18.50;99.90
24686;DHT22;12804;51.176;4.452;2022-09-02T06:49:18;18.50;99.90
24686;DHT22;12804;51.176;4.452;2022-09-02T06:51:48;18.50;99.90
24686;DHT22;12804;51.176;4.452;2022-09-02T06:54:17;18.60;99.90
24686;DHT22;12804;51.176;4.452;2022-09-02T06:56:46;18.70;99.90
24686;DHT22;12804;51.176;4.452;2022-09-02T06:59:12;18.80;99.90
24686;DHT22;12804;51.176;4.452;2022-09-02T07:01:44;18.90;99.90
24686;DHT22;12804;51.176;4.452;2022-09-02T07:04:14;19.00;99.90
24686;DHT22;12804;51.176;4.452;2022-09-02T07:06:59;19.00;99.90
24686;DHT22;12804;51.176;4.452;2022-09-02T07:09:28;19.00;99.90
24686;DHT22;12804;51.176;4.452;2022-09-02T07:12:03;19.20;99.90
24686;DHT22;12804;51.176;4.452;2022-09-02T07:14:38;19.10;99.90
24686;DHT22;12804;51.176;4.452;2022-09-02T07:17:05;19.10;99.90
24686;DHT22;12804;51.176;4.452;2022-09-02T07:19:31;19.20;99.90
24686;DHT22;12804;51.176;4.452;2022-09-02T07:21:57;19.30;99.90
24686;DHT22;12804;51.176;4.452;2022-09-02T07:24:24;19.40;99.90
24686;DHT22;12804;51.176;4.452;2022-09-02T07:26:51;19.50;99.90
24686;DHT22;12804;51.176;4.452;2022-09-02T07:29:18;19.60;99.90
24686;DHT22;12804;51.176;4.452;2022-09-02T07:31:47;19.80;99.90
24686;DHT22;12804;51.176;4.452;2022-09-02T07:34:17;19.70;99.90
24686;DHT22;12804;51.176;4.452;2022-09-02T07:36:45;19.50;99.90
24686;DHT22;12804;51.176;4.452;2022-09-02T07:39:16;19.70;99.90
24686;DHT22;12804;51.176;4.452;2022-09-02T07:41:45;19.90;99.90
24686;DHT22;12804;51.176;4.452;2022-09-02T07:44:12;20.10;99.90
24686;DHT22;12804;51.176;4.452;2022-09-02T07:46:39;20.30;99.90
24686;DHT22;12804;51.176;4.452;2022-09-02T07:49:08;20.50;99.90
24686;DHT22;12804;51.176;4.452;2022-09-02T07:51:35;20.60;99.90
24686;DHT22;12804;51.176;4.452;2022-09-02T07:54:02;20.70;99.90
24686;DHT22;12804;51.176;4.452;2022-09-02T07:56:28;20.80;99.90
24686;DHT22;12804;51.176;4.452;2022-09-02T07:58:54;20.80;99.90
24686;DHT22;12804;51.176;4.452;2022-09-02T08:01:20;20.90;99.90
24686;DHT22;12804;51.176;4.452;2022-09-02T08:03:48;21.00;99.90
24686;DHT22;12804;51.176;4.452;2022-09-02T08:06:14;21.20;99.90
24686;DHT22;12804;51.176;4.452;2022-09-02T08:08:41;21.20;99.90
24686;DHT22;12804;51.176;4.452;2022-09-02T08:11:07;21.30;99.90
24686;DHT22;12804;51.176;4.452;2022-09-02T08:13:35;21.40;99.90
24686;DHT22;12804;51.176;4.452;2022-09-02T08:16:01;21.50;99.90
24686;DHT22;12804;51.176;4.452;2022-09-02T08:18:28;21.60;99.90
24686;DHT22;12804;51.176;4.452;2022-09-02T08:20:54;21.70;99.90
24686;DHT22;12804;51.176;4.452;2022-09-02T08:23:20;21.80;99.90
24686;DHT22;12804;51.176;4.452;2022-09-02T08:25:46;21.80;99.90
24686;DHT22;12804;51.176;4.452;2022-09-02T08:28:12;21.90;99.90
24686;DHT22;12804;51.176;4.452;2022-09-02T08:30:38;21.90;99.90
24686;DHT22;12804;51.176;4.452;2022-09-02T08:33:04;21.90;99.90
24686;DHT22;12804;51.176;4.452;2022-09-02T08:35:30;21.80;99.90
24686;DHT22;12804;51.176;4.452;2022-09-02T08:37:59;21.90;99.90
24686;DHT22;12804;51.176;4.452;2022-09-02T08:40:39;22.00;99.90
24686;DHT22;12804;51.176;4.452;2022-09-02T08:43:36;22.10;99.90
24686;DHT22;12804;51.176;4.452;2022-09-02T08:46:05;22.30;99.90
24686;DHT22;12804;51.176;4.452;2022-09-02T08:51:10;22.60;99.90
24686;DHT22;12804;51.176;4.452;2022-09-02T08:54:06;22.70;99.90
24686;DHT22;12804;51.176;4.452;2022-09-02T08:56:33;22.90;99.90
24686;DHT22;12804;51.176;4.452;2022-09-02T08:58:58;23.00;99.90
24686;DHT22;12804;51.176;4.452;2022-09-02T09:02:02;22.90;99.90
24686;DHT22;12804;51.176;4.452;2022-09-02T09:07:46;22.90;99.90
24686;DHT22;12804;51.176;4.452;2022-09-02T09:10:35;23.10;99.90
24686;DHT22;12804;51.176;4.452;2022-09-02T09:19:13;23.40;99.90
24686;DHT22;12804;51.176;4.452;2022-09-02T09:21:41;23.50;99.90
24686;DHT22;12804;51.176;4.452;2022-09-02T09:26:43;23.70;99.90
24686;DHT22;12804;51.176;4.452;2022-09-02T09:29:09;23.60;99.90
24686;DHT22;12804;51.176;4.452;2022-09-02T09:31:35;23.50;99.90
24686;DHT22;12804;51.176;4.452;2022-09-02T09:34:11;23.40;99.90
24686;DHT22;12804;51.176;4.452;2022-09-02T09:36:51;23.40;99.90
24686;DHT22;12804;51.176;4.452;2022-09-02T09:41:52;23.70;99.90
24686;DHT22;12804;51.176;4.452;2022-09-02T09:44:42;23.80;99.90
24686;DHT22;12804;51.176;4.452;2022-09-02T09:47:20;24.10;99.90
24686;DHT22;12804;51.176;4.452;2022-09-02T09:49:52;24.30;99.90
24686;DHT22;12804;51.176;4.452;2022-09-02T09:52:28;24.30;99.90
24686;DHT22;12804;51.176;4.452;2022-09-02T09:55:24;24.40;99.90
24686;DHT22;12804;51.176;4.452;2022-09-02T09:57:51;24.10;99.90
24686;DHT22;12804;51.176;4.452;2022-09-02T10:00:27;24.20;99.90
24686;DHT22;12804;51.176;4.452;2022-09-02T10:02:57;24.30;99.90
24686;DHT22;12804;51.176;4.452;2022-09-02T10:08:04;25.00;99.90
24686;DHT22;12804;51.176;4.452;2022-09-02T10:10:31;25.10;99.90
24686;DHT22;12804;51.176;4.452;2022-09-02T10:13:01;25.00;99.90
24686;DHT22;12804;51.176;4.452;2022-09-02T10:21:31;25.50;99.90
24686;DHT22;12804;51.176;4.452;2022-09-02T10:24:28;25.50;99.90
24686;DHT22;12804;51.176;4.452;2022-09-02T10:26:58;26.10;99.90
24686;DHT22;12804;51.176;4.452;2022-09-02T10:29:58;26.40;99.90
24686;DHT22;12804;51.176;4.452;2022-09-02T10:40:43;27.10;99.90
24686;DHT22;12804;51.176;4.452;2022-09-02T10:43:25;27.40;99.90
24686;DHT22;12804;51.176;4.452;2022-09-02T10:46:00;27.90;99.90
24686;DHT22;12804;51.176;4.452;2022-09-02T10:51:35;28.70;99.90
24686;DHT22;12804;51.176;4.452;2022-09-02T10:56:54;29.70;98.00
24686;DHT22;12804;51.176;4.452;2022-09-02T10:59:37;30.60;94.80
24686;DHT22;12804;51.176;4.452;2022-09-02T11:02:20;31.00;92.40
24686;DHT22;12804;51.176;4.452;2022-09-02T11:04:59;31.30;91.60
24686;DHT22;12804;51.176;4.452;2022-09-02T11:07:40;32.00;90.20
24686;DHT22;12804;51.176;4.452;2022-09-02T11:10:34;31.80;86.80
24686;DHT22;12804;51.176;4.452;2022-09-02T11:13:24;31.80;86.30
24686;DHT22;12804;51.176;4.452;2022-09-02T11:15:56;31.30;85.90
24686;DHT22;12804;51.176;4.452;2022-09-02T11:18:37;31.40;84.60
24686;DHT22;12804;51.176;4.452;2022-09-02T11:23:50;31.40;83.20
24686;DHT22;12804;51.176;4.452;2022-09-02T11:26:19;31.50;83.40
24686;DHT22;12804;51.176;4.452;2022-09-02T11:31:41;31.20;83.00
24686;DHT22;12804;51.176;4.452;2022-09-02T11:34:43;32.30;80.00
24686;DHT22;12804;51.176;4.452;2022-09-02T11:37:26;32.50;76.50
24686;DHT22;12804;51.176;4.452;2022-09-02T11:40:07;31.70;76.90
24686;DHT22;12804;51.176;4.452;2022-09-02T11:45:45;31.80;75.90
24686;DHT22;12804;51.176;4.452;2022-09-02T11:53:54;32.00;73.40
24686;DHT22;12804;51.176;4.452;2022-09-02T11:56:26;32.30;71.80
24686;DHT22;12804;51.176;4.452;2022-09-02T11:58:54;32.70;69.80
24686;DHT22;12804;51.176;4.452;2022-09-02T12:04:04;34.00;66.40
24686;DHT22;12804;51.176;4.452;2022-09-02T12:06:31;35.00;62.90
24686;DHT22;12804;51.176;4.452;2022-09-02T12:09:03;34.20;60.70
24686;DHT22;12804;51.176;4.452;2022-09-02T12:14:06;33.40;58.90
24686;DHT22;12804;51.176;4.452;2022-09-02T12:16:43;33.20;59.60
24686;DHT22;12804;51.176;4.452;2022-09-02T12:19:38;33.50;58.70
24686;DHT22;12804;51.176;4.452;2022-09-02T12:24:53;34.30;56.70
24686;DHT22;12804;51.176;4.452;2022-09-02T12:27:36;35.20;56.50
24686;DHT22;12804;51.176;4.452;2022-09-02T12:30:05;35.10;56.40
24686;DHT22;12804;51.176;4.452;2022-09-02T12:35:34;36.30;53.10
24686;DHT22;12804;51.176;4.452;2022-09-02T12:41:06;36.90;52.40
24686;DHT22;12804;51.176;4.452;2022-09-02T12:44:00;36.40;51.50
24686;DHT22;12804;51.176;4.452;2022-09-02T12:49:04;36.00;52.10
24686;DHT22;12804;51.176;4.452;2022-09-02T12:54:43;36.30;49.60
24686;DHT22;12804;51.176;4.452;2022-09-02T12:57:12;36.00;50.40
24686;DHT22;12804;51.176;4.452;2022-09-02T12:59:41;35.70;50.20
24686;DHT22;12804;51.176;4.452;2022-09-02T13:02:52;35.00;51.40
24686;DHT22;12804;51.176;4.452;2022-09-02T13:05:52;33.40;52.70
24686;DHT22;12804;51.176;4.452;2022-09-02T13:14:36;35.40;50.00
24686;DHT22;12804;51.176;4.452;2022-09-02T13:31:01;36.50;46.80
24686;DHT22;12804;51.176;4.452;2022-09-02T13:33:28;36.60;46.90
24686;DHT22;12804;51.176;4.452;2022-09-02T13:35:56;38.40;45.40
24686;DHT22;12804;51.176;4.452;2022-09-02T13:38:25;39.50;42.60
24686;DHT22;12804;51.176;4.452;2022-09-02T13:40:52;38.80;42.80
24686;DHT22;12804;51.176;4.452;2022-09-02T13:43:21;36.90;43.50
24686;DHT22;12804;51.176;4.452;2022-09-02T13:45:50;36.70;43.20
24686;DHT22;12804;51.176;4.452;2022-09-02T13:48:22;37.30;42.60
24686;DHT22;12804;51.176;4.452;2022-09-02T13:50:58;37.30;42.70
24686;DHT22;12804;51.176;4.452;2022-09-02T13:53:30;37.00;42.90
24686;DHT22;12804;51.176;4.452;2022-09-02T13:55:57;36.50;43.30
24686;DHT22;12804;51.176;4.452;2022-09-02T14:00:57;35.00;44.60
24686;DHT22;12804;51.176;4.452;2022-09-02T14:03:23;34.50;45.20
24686;DHT22;12804;51.176;4.452;2022-09-02T14:05:51;34.90;44.80
24686;DHT22;12804;51.176;4.452;2022-09-02T14:08:22;36.60;43.50
24686;DHT22;12804;51.176;4.452;2022-09-02T14:10:50;37.00;42.30
24686;DHT22;12804;51.176;4.452;2022-09-02T14:13:19;35.80;43.10
24686;DHT22;12804;51.176;4.452;2022-09-02T14:15:45;35.70;44.30
24686;DHT22;12804;51.176;4.452;2022-09-02T14:20:57;37.90;40.90
24686;DHT22;12804;51.176;4.452;2022-09-02T14:23:25;38.60;41.50
24686;DHT22;12804;51.176;4.452;2022-09-02T14:25:54;39.20;38.80
24686;DHT22;12804;51.176;4.452;2022-09-02T14:28:26;39.50;39.10
24686;DHT22;12804;51.176;4.452;2022-09-02T14:30:56;41.40;38.40
24686;DHT22;12804;51.176;4.452;2022-09-02T14:38:53;40.30;37.00
24686;DHT22;12804;51.176;4.452;2022-09-02T14:41:33;41.40;36.00
24686;DHT22;12804;51.176;4.452;2022-09-02T14:44:12;40.90;36.10
24686;DHT22;12804;51.176;4.452;2022-09-02T14:46:44;42.10;35.00
24686;DHT22;12804;51.176;4.452;2022-09-02T14:51:57;42.60;34.10
24686;DHT22;12804;51.176;4.452;2022-09-02T14:54:35;42.90;33.60
24686;DHT22;12804;51.176;4.452;2022-09-02T14:57:02;42.80;32.70
24686;DHT22;12804;51.176;4.452;2022-09-02T14:59:28;43.20;32.30
24686;DHT22;12804;51.176;4.452;2022-09-02T15:01:55;43.40;32.40
24686;DHT22;12804;51.176;4.452;2022-09-02T15:04:23;43.50;32.60
24686;DHT22;12804;51.176;4.452;2022-09-02T15:06:49;43.90;33.00
24686;DHT22;12804;51.176;4.452;2022-09-02T15:09:16;43.20;33.20
24686;DHT22;12804;51.176;4.452;2022-09-02T15:11:49;41.90;33.90
24686;DHT22;12804;51.176;4.452;2022-09-02T15:14:15;41.10;35.30
24686;DHT22;12804;51.176;4.452;2022-09-02T15:16:41;41.40;35.30
24686;DHT22;12804;51.176;4.452;2022-09-02T15:19:07;42.20;34.70
24686;DHT22;12804;51.176;4.452;2022-09-02T15:21:33;41.30;34.30
24686;DHT22;12804;51.176;4.452;2022-09-02T15:23:59;40.00;35.20
24686;DHT22;12804;51.176;4.452;2022-09-02T15:26:24;39.40;35.90
24686;DHT22;12804;51.176;4.452;2022-09-02T15:28:50;40.50;35.50
24686;DHT22;12804;51.176;4.452;2022-09-02T15:31:16;42.00;34.50
24686;DHT22;12804;51.176;4.452;2022-09-02T15:33:48;42.50;33.70
24686;DHT22;12804;51.176;4.452;2022-09-02T15:36:14;42.50;33.50
24686;DHT22;12804;51.176;4.452;2022-09-02T15:38:39;42.10;33.20
24686;DHT22;12804;51.176;4.452;2022-09-02T15:41:17;42.10;33.40
24686;DHT22;12804;51.176;4.452;2022-09-02T15:43:43;41.70;33.90
24686;DHT22;12804;51.176;4.452;2022-09-02T15:48:47;40.90;34.70
24686;DHT22;12804;51.176;4.452;2022-09-02T15:51:15;40.50;34.80
24686;DHT22;12804;51.176;4.452;2022-09-02T15:53:41;39.00;35.50
24686;DHT22;12804;51.176;4.452;2022-09-02T15:56:18;37.70;37.20
24686;DHT22;12804;51.176;4.452;2022-09-02T15:58:44;38.30;36.80
24686;DHT22;12804;51.176;4.452;2022-09-02T16:01:10;39.90;36.40
24686;DHT22;12804;51.176;4.452;2022-09-02T16:03:36;40.50;35.10
24686;DHT22;12804;51.176;4.452;2022-09-02T16:06:04;41.10;34.20
24686;DHT22;12804;51.176;4.452;2022-09-02T16:08:31;40.10;35.40
24686;DHT22;12804;51.176;4.452;2022-09-02T16:11:02;38.00;36.50
24686;DHT22;12804;51.176;4.452;2022-09-02T16:13:29;36.60;38.60
24686;DHT22;12804;51.176;4.452;2022-09-02T16:16:03;35.50;40.10
24686;DHT22;12804;51.176;4.452;2022-09-02T16:18:29;34.50;41.40
24686;DHT22;12804;51.176;4.452;2022-09-02T16:20:55;33.40;42.30
24686;DHT22;12804;51.176;4.452;2022-09-02T16:23:21;32.40;44.00
24686;DHT22;12804;51.176;4.452;2022-09-02T16:25:47;32.00;44.90
24686;DHT22;12804;51.176;4.452;2022-09-02T16:28:13;31.70;45.80
24686;DHT22;12804;51.176;4.452;2022-09-02T16:30:40;31.20;46.70
24686;DHT22;12804;51.176;4.452;2022-09-02T16:33:05;30.50;48.00
24686;DHT22;12804;51.176;4.452;2022-09-02T16:35:31;30.30;48.90
24686;DHT22;12804;51.176;4.452;2022-09-02T16:37:57;30.30;48.60
24686;DHT22;12804;51.176;4.452;2022-09-02T16:40:23;29.90;49.00
24686;DHT22;12804;51.176;4.452;2022-09-02T16:42:48;29.70;49.30
24686;DHT22;12804;51.176;4.452;2022-09-02T16:45:14;29.60;49.40
24686;DHT22;12804;51.176;4.452;2022-09-02T16:47:40;29.30;50.00
24686;DHT22;12804;51.176;4.452;2022-09-02T16:50:06;29.20;50.50
24686;DHT22;12804;51.176;4.452;2022-09-02T16:52:33;29.10;50.80
24686;DHT22;12804;51.176;4.452;2022-09-02T16:54:59;29.00;51.20
24686;DHT22;12804;51.176;4.452;2022-09-02T16:57:25;28.80;51.90
24686;DHT22;12804;51.176;4.452;2022-09-02T16:59:51;28.80;52.50
24686;DHT22;12804;51.176;4.452;2022-09-02T17:02:17;28.90;52.70
24686;DHT22;12804;51.176;4.452;2022-09-02T17:04:43;28.60;52.30
24686;DHT22;12804;51.176;4.452;2022-09-02T17:07:08;28.50;53.10
24686;DHT22;12804;51.176;4.452;2022-09-02T17:09:34;28.30;53.60
24686;DHT22;12804;51.176;4.452;2022-09-02T17:12:00;28.30;53.70
24686;DHT22;12804;51.176;4.452;2022-09-02T17:14:26;28.40;53.90
24686;DHT22;12804;51.176;4.452;2022-09-02T17:16:52;28.20;54.10
24686;DHT22;12804;51.176;4.452;2022-09-02T17:19:19;28.30;54.30
24686;DHT22;12804;51.176;4.452;2022-09-02T17:21:52;28.20;54.50
24686;DHT22;12804;51.176;4.452;2022-09-02T17:24:22;28.00;55.10
24686;DHT22;12804;51.176;4.452;2022-09-02T17:26:50;27.70;55.30
24686;DHT22;12804;51.176;4.452;2022-09-02T17:29:18;27.50;56.20
24686;DHT22;12804;51.176;4.452;2022-09-02T17:31:45;27.40;56.50
24686;DHT22;12804;51.176;4.452;2022-09-02T17:34:12;27.40;56.20
24686;DHT22;12804;51.176;4.452;2022-09-02T17:36:40;27.10;56.70